KHIB

Range Regional Airport

Hibbing, Minnesota, USA
METAR KHIB 140653Z AUTO 00000KT 4SM BR CLR M14/M16 A3000 RMK AO2 SLP187 T11441161
Observed Flight Rules
Dec-14 @ 06:53 UTC (an hour ago) Marginal Visual Flight Rules
Visibility Clouds Conditions
4 miles
  • Clear skies
  • Mist
Temperatures Readings
Current -14°C / 7°F
Dewpoint -16°C / 3°F
Humidity 85%
Altimeter 30" Hg
Pressure 1018.7 hPa
Elevation 412
METAR KHIB 140653Z AUTO 00000KT 4SM BR CLR M14/M16 A3000 RMK AO2 SLP187 T11441161
Observed Flight Rules
Dec-14 @ 06:53 UTC
(an hour ago)
MVFR
Clouds
  • Clear skies
Conditions
  • Mist
Temperature Dewpoint
-14°C / 7°F -16°C / 3°F
Humidity Altimeter Pressure
85% 30" Hg 1018.7 hPa